Time;durP1;ratioP1;P1;durP2;ratioP2;P2;SDS_P1;SDS_P2;PMS_P1;PMS_P2;Temp;Humidity;BMP_temperature;BMP_pressure;BME280_temperature;BME280_humidity;BME280_pressure;Samples;Min_cycle;Max_cycle;Signal;HPM_P1;HPM_P2
2023/01/12 00:01:27;;;;;;;;;6.25;2.75;;;;;-146.37;100.00;59337.28;5030252;28;45363;-82
2023/01/12 00:03:54;;;;;;;;;4.00;2.50;;;;;-146.37;100.00;59337.28;5047042;28;45480;-82
2023/01/12 00:06:21;;;;;;;;;3.75;2.75;;;;;-146.37;100.00;59337.28;5047512;28;45085;-82
2023/01/12 00:08:47;;;;;;;;;2.50;2.50;;;;;-146.37;100.00;59337.28;5030758;28;45459;-82
2023/01/12 00:11:14;;;;;;;;;6.50;3.25;;;;;-146.37;100.00;59337.28;5028410;28;45415;-81
2023/01/12 00:13:40;;;;;;;;;4.25;3.25;;;;;-146.37;100.00;59337.28;5028751;28;45551;-82
2023/01/12 00:18:52;;;;;;;;;3.00;3.00;;;;;-146.37;100.00;59337.28;5048285;28;45434;-81
2023/01/12 00:21:18;;;;;;;;;3.00;1.50;;;;;-146.37;100.00;59337.28;5031323;28;45655;-83
2023/01/12 00:23:43;;;;;;;;;3.67;3.00;;;;;-146.37;100.00;59337.28;5046574;28;45485;-81
2023/01/12 00:29:31;;;;;;;;;5.67;2.33;;;;;-146.37;100.00;59337.28;5046050;28;45410;-80
2023/01/12 00:31:58;;;;;;;;;4.00;2.75;;;;;-146.37;100.00;59337.28;5047468;28;45430;-81
2023/01/12 00:34:24;;;;;;;;;3.25;2.00;;;;;-146.37;100.00;59337.28;5030143;28;45509;-82
2023/01/12 00:36:50;;;;;;;;;3.25;2.00;;;;;-146.37;100.00;59337.28;5046416;28;46332;-82
2023/01/12 00:39:16;;;;;;;;;3.00;1.75;;;;;-146.37;100.00;59337.28;5029961;28;45369;-82
2023/01/12 00:47:12;;;;;;;;;3.25;2.50;;;;;-146.37;100.00;59337.28;5050091;28;45480;-81
2023/01/12 00:49:40;;;;;;;;;3.25;1.25;;;;;-146.37;100.00;59337.28;5041888;28;45688;-80
2023/01/12 00:52:07;;;;;;;;;7.00;2.00;;;;;-146.37;100.00;59337.28;5068701;28;45372;-79
2023/01/12 00:54:33;;;;;;;;;3.00;3.00;;;;;-146.37;100.00;59337.28;5068445;28;45299;-80
2023/01/12 00:57:01;;;;;;;;;8.67;3.33;;;;;-146.37;100.00;59337.28;5051125;28;47156;-79
2023/01/12 00:59:27;;;;;;;;;4.50;1.75;;;;;-146.37;100.00;59337.28;5067908;28;45424;-80
2023/01/12 01:01:53;;;;;;;;;2.00;1.25;;;;;-146.37;100.00;59337.28;5049032;28;45422;-82
2023/01/12 01:04:18;;;;;;;;;2.75;2.00;;;;;-146.37;100.00;59337.28;5069701;28;45438;-82
2023/01/12 01:06:44;;;;;;;;;3.25;3.00;;;;;-146.37;100.00;59337.28;5070225;28;45663;-80
2023/01/12 01:09:09;;;;;;;;;4.00;2.25;;;;;-146.37;100.00;59337.28;5050959;28;45414;-81
2023/01/12 01:11:35;;;;;;;;;4.25;3.25;;;;;-146.37;100.00;59337.28;5052403;28;44737;-80
2023/01/12 01:14:02;;;;;;;;;4.75;2.75;;;;;-146.37;100.00;59337.28;5051422;28;45426;-84
2023/01/12 01:16:28;;;;;;;;;7.67;3.00;;;;;-146.37;100.00;59337.28;5068362;28;45384;-82
2023/01/12 01:18:54;;;;;;;;;1.00;1.00;;;;;-146.37;100.00;59337.28;5068237;28;45741;-81
2023/01/12 01:21:20;;;;;;;;;3.00;3.00;;;;;-146.37;100.00;59337.28;5069973;28;45407;-82
2023/01/12 01:23:45;;;;;;;;;2.00;2.00;;;;;-146.37;100.00;59337.28;5070392;28;45477;-82
2023/01/12 01:26:14;;;;;;;;;3.00;3.00;;;;;-146.37;100.00;59337.28;5050732;28;47961;-82
2023/01/12 01:28:40;;;;;;;;;2.00;2.00;;;;;-146.37;100.00;59337.28;5050684;28;45458;-80
2023/01/12 01:31:12;;;;;;;;;3.00;3.00;;;;;-146.37;100.00;59337.28;5069492;28;45334;-81
2023/01/12 01:33:38;;;;;;;;;4.25;3.25;;;;;-146.37;100.00;59337.28;5070817;28;45753;-81
2023/01/12 01:36:04;;;;;;;;;2.00;2.00;;;;;-146.37;100.00;59337.28;5068569;28;46755;-80
2023/01/12 01:38:30;;;;;;;;;1.25;1.25;;;;;-146.37;100.00;59337.28;5067879;28;45397;-80
2023/01/12 01:41:00;;;;;;;;;3.25;1.50;;;;;-146.37;100.00;59337.28;5049723;28;45455;-81
2023/01/12 01:43:27;;;;;;;;;3.50;3.50;;;;;-146.37;100.00;59337.28;5050922;28;45420;-82
2023/01/12 01:46:03;;;;;;;;;2.25;2.25;;;;;-146.37;100.00;59337.28;5066433;28;47178;-82
2023/01/12 01:48:33;;;;;;;;;1.25;1.25;;;;;-146.37;100.00;59337.28;5048722;28;45770;-81
2023/01/12 01:51:05;;;;;;;;;6.50;4.50;;;;;-146.37;100.00;59337.28;5047427;28;45397;-80
2023/01/12 01:53:35;;;;;;;;;6.00;3.00;;;;;-146.37;100.00;59337.28;5067631;28;44841;-80
2023/01/12 01:56:15;;;;;;;;;3.00;1.75;;;;;-146.37;100.00;59337.28;5047404;28;47491;-81
2023/01/12 01:58:48;;;;;;;;;6.75;1.00;;;;;-146.37;100.00;59337.28;5048376;28;45390;-81
2023/01/12 02:01:14;;;;;;;;;5.00;2.00;;;;;-146.37;100.00;59337.28;5067032;28;45761;-80
2023/01/12 02:03:40;;;;;;;;;1.00;1.00;;;;;-146.37;100.00;59337.28;5068333;28;45466;-81
2023/01/12 02:06:07;;;;;;;;;7.33;3.00;;;;;-146.37;100.00;59337.28;5070046;28;46256;-81
2023/01/12 02:08:52;;;;;;;;;1.33;1.00;;;;;-146.37;100.00;59337.28;5049361;28;45397;-82
2023/01/12 02:17:27;;;;;;;;;3.33;3.00;;;;;-146.37;100.00;59337.28;5066716;28;45462;-82
2023/01/12 02:20:27;;;;;;;;;4.00;2.00;;;;;-146.37;100.00;59337.28;5005899;28;44834;-82
2023/01/12 02:23:29;;;;;;;;;6.75;2.50;;;;;-146.37;100.00;59337.28;4991083;28;45794;-82
2023/01/12 02:26:32;;;;;;;;;4.00;2.67;;;;;-146.37;100.00;59337.28;5008005;28;45446;-82
2023/01/12 02:29:28;;;;;;;;;2.00;2.00;;;;;-146.37;100.00;59337.28;5006645;28;47147;-82
2023/01/12 02:32:12;;;;;;;;;2.25;1.25;;;;;-146.37;100.00;59337.28;5006165;28;45443;-83
2023/01/12 02:34:46;;;;;;;;;4.00;2.75;;;;;-146.37;100.00;59337.28;5005733;28;45482;-83
2023/01/12 02:37:27;;;;;;;;;2.00;1.00;;;;;-146.37;100.00;59337.28;5005062;28;45533;-82
2023/01/12 02:40:34;;;;;;;;;1.25;1.25;;;;;-146.37;100.00;59337.28;5003147;28;45978;-82
2023/01/12 02:43:11;;;;;;;;;3.25;1.50;;;;;-146.37;100.00;59337.28;4950389;28;45542;-82
2023/01/12 02:45:49;;;;;;;;;3.75;1.50;;;;;-146.37;100.00;59337.28;4967635;28;45344;-83
2023/01/12 02:48:29;;;;;;;;;0.00;0.00;;;;;-146.37;100.00;59337.28;4965172;28;45503;-82
2023/01/12 02:51:05;;;;;;;;;5.00;3.00;;;;;-146.37;100.00;59337.28;4964423;28;45592;-82
2023/01/12 02:53:50;;;;;;;;;4.50;2.00;;;;;-146.37;100.00;59337.28;4964419;28;45499;-82
2023/01/12 02:56:32;;;;;;;;;5.00;3.00;;;;;-146.37;100.00;59337.28;4976283;28;45469;-82
2023/01/12 02:59:04;;;;;;;;;4.75;1.50;;;;;-146.37;100.00;59337.28;5004979;28;45499;-81
2023/01/12 03:01:32;;;;;;;;;1.25;1.25;;;;;-146.37;100.00;59337.28;4986834;28;47489;-82
2023/01/12 03:04:01;;;;;;;;;2.00;2.00;;;;;-146.37;100.00;59337.28;4987007;28;45366;-82
2023/01/12 03:06:44;;;;;;;;;5.00;2.25;;;;;-146.37;100.00;59337.28;4988040;28;45497;-82
2023/01/12 03:09:13;;;;;;;;;0.25;0.25;;;;;-146.37;100.00;59337.28;4986931;28;45336;-82
2023/01/12 03:11:41;;;;;;;;;3.50;1.75;;;;;-146.37;100.00;59337.28;4987146;28;46952;-82
2023/01/12 03:14:09;;;;;;;;;3.75;2.50;;;;;-146.37;100.00;59337.28;4986049;28;45399;-82
2023/01/12 03:16:37;;;;;;;;;1.50;1.00;;;;;-146.37;100.00;59337.28;5002683;28;44814;-82
2023/01/12 03:19:26;;;;;;;;;1.00;0.00;;;;;-146.37;100.00;59337.28;4998252;28;45499;-82
2023/01/12 03:22:05;;;;;;;;;1.25;1.25;;;;;-146.37;100.00;59337.28;5029061;28;46690;-82
2023/01/12 03:24:36;;;;;;;;;3.75;2.00;;;;;-146.37;100.00;59337.28;5045653;28;45390;-82
2023/01/12 03:27:08;;;;;;;;;3.00;1.00;;;;;-146.37;100.00;59337.28;5030812;28;45367;-82
2023/01/12 03:29:42;;;;;;;;;1.75;1.75;;;;;-146.37;100.00;59337.28;5046326;28;44919;-81
2023/01/12 03:32:07;;;;;;;;;3.25;1.00;;;;;-146.37;100.00;59337.28;5028236;28;47119;-81
2023/01/12 03:34:34;;;;;;;;;2.00;2.00;;;;;-146.37;100.00;59337.28;5046627;28;45614;-81
2023/01/12 03:37:18;;;;;;;;;1.75;1.50;;;;;-146.37;100.00;59337.28;5048202;28;44743;-81
2023/01/12 03:40:01;;;;;;;;;3.00;2.00;;;;;-146.37;100.00;59337.28;5028312;28;45344;-81
2023/01/12 03:42:47;;;;;;;;;2.25;2.00;;;;;-146.37;100.00;59337.28;5046035;28;45459;-81
2023/01/12 03:45:39;;;;;;;;;5.00;1.75;;;;;-146.37;100.00;59337.28;5028424;28;45761;-82
2023/01/12 03:48:17;;;;;;;;;4.00;2.50;;;;;-146.37;100.00;59337.28;4985335;28;45823;-81
2023/01/12 03:50:56;;;;;;;;;2.00;2.00;;;;;-146.37;100.00;59337.28;4985523;28;45100;-80
2023/01/12 03:53:23;;;;;;;;;1.00;1.00;;;;;-146.37;100.00;59337.28;4982951;28;46727;-80
2023/01/12 03:55:53;;;;;;;;;2.50;2.50;;;;;-146.37;100.00;59337.28;4982697;28;45571;-81
2023/01/12 03:58:20;;;;;;;;;1.50;1.50;;;;;-146.37;100.00;59337.28;4983136;28;45539;-81
2023/01/12 04:00:46;;;;;;;;;5.00;1.25;;;;;-146.37;100.00;59337.28;4983598;28;45473;-81
2023/01/12 04:03:14;;;;;;;;;1.00;1.00;;;;;-146.37;100.00;59337.28;4983991;28;45384;-81
2023/01/12 04:05:43;;;;;;;;;2.75;0.75;;;;;-146.37;100.00;59337.28;4984935;28;45461;-82
2023/01/12 04:08:11;;;;;;;;;2.75;2.50;;;;;-146.37;100.00;59337.28;4981726;28;45439;-82
2023/01/12 04:10:37;;;;;;;;;2.00;1.00;;;;;-146.37;100.00;59337.28;4984793;28;45496;-82
2023/01/12 04:13:02;;;;;;;;;2.00;2.00;;;;;-146.37;100.00;59337.28;4966704;28;47839;-80
2023/01/12 04:15:28;;;;;;;;;2.00;1.25;;;;;-146.37;100.00;59337.28;4970372;28;45632;-81
2023/01/12 04:17:54;;;;;;;;;4.00;3.00;;;;;-146.37;100.00;59337.28;4984487;28;45673;-79
2023/01/12 04:20:20;;;;;;;;;3.50;1.25;;;;;-146.37;100.00;59337.28;4986384;28;45547;-81
2023/01/12 04:22:45;;;;;;;;;3.25;1.50;;;;;-146.37;100.00;59337.28;4986684;28;45073;-81
2023/01/12 04:25:20;;;;;;;;;2.50;2.00;;;;;-146.37;100.00;59337.28;5009316;28;45342;-81
2023/01/12 04:27:46;;;;;;;;;1.75;1.75;;;;;-146.37;100.00;59337.28;5047126;28;45870;-81
2023/01/12 04:30:13;;;;;;;;;4.00;1.75;;;;;-146.37;100.00;59337.28;5029428;28;45460;-82
2023/01/12 04:32:38;;;;;;;;;3.00;2.25;;;;;-146.37;100.00;59337.28;5050904;28;45416;-80
2023/01/12 04:35:05;;;;;;;;;3.25;2.50;;;;;-146.37;100.00;59337.28;5049463;28;45475;-81
2023/01/12 04:37:34;;;;;;;;;4.25;2.75;;;;;-146.37;100.00;59337.28;5029453;28;45461;-81
2023/01/12 04:40:00;;;;;;;;;3.75;2.00;;;;;-146.37;100.00;59337.28;5029740;28;45387;-81
2023/01/12 04:45:11;;;;;;;;;2.00;2.00;;;;;-146.37;100.00;59337.28;5048292;28;45409;-81
2023/01/12 04:47:36;;;;;;;;;3.00;3.00;;;;;-146.37;100.00;59337.28;5047610;28;45358;-81
2023/01/12 04:50:02;;;;;;;;;1.33;1.33;;;;;-146.37;100.00;59337.28;5049014;28;45504;-81
2023/01/12 04:52:27;;;;;;;;;5.75;3.00;;;;;-146.37;100.00;59337.28;5048676;28;46130;-81
2023/01/12 04:54:53;;;;;;;;;3.75;2.50;;;;;-146.37;100.00;59337.28;5067285;28;45765;-81
2023/01/12 04:57:18;;;;;;;;;3.50;2.00;;;;;-146.37;100.00;59337.28;5049651;28;45420;-83
2023/01/12 04:59:44;;;;;;;;;2.75;2.75;;;;;-146.37;100.00;59337.28;5068773;28;45644;-82
2023/01/12 05:02:09;;;;;;;;;1.25;1.25;;;;;-146.37;100.00;59337.28;5069029;28;45492;-82
2023/01/12 05:05:28;;;;;;;;;8.33;4.33;;;;;-146.37;100.00;59337.28;5050206;28;45335;-81
2023/01/12 05:10:38;;;;;;;;;5.33;2.00;;;;;-146.37;100.00;59337.28;5066706;28;45889;-81
2023/01/12 05:13:04;;;;;;;;;1.33;1.33;;;;;-146.37;100.00;59337.28;5068237;28;46282;-82
2023/01/12 05:15:29;;;;;;;;;3.67;3.00;;;;;-146.37;100.00;59337.28;5068268;28;45509;-82
2023/01/12 05:17:56;;;;;;;;;2.33;1.67;;;;;-146.37;100.00;59337.28;5068152;28;45491;-82
2023/01/12 05:20:22;;;;;;;;;1.50;0.00;;;;;-146.37;100.00;59337.28;5066541;28;44833;-82
2023/01/12 05:22:49;;;;;;;;;1.75;1.50;;;;;-146.37;100.00;59337.28;5067903;28;46042;-81
2023/01/12 05:25:14;;;;;;;;;2.00;2.00;;;;;-146.37;100.00;59337.28;5044842;28;45434;-82
2023/01/12 05:27:40;;;;;;;;;2.00;2.00;;;;;-146.37;100.00;59337.28;5048634;28;45444;-82
2023/01/12 05:30:06;;;;;;;;;1.00;0.75;;;;;-146.37;100.00;59337.28;5065104;28;45403;-82
2023/01/12 05:32:37;;;;;;;;;0.75;0.75;;;;;-146.37;100.00;59337.28;5048614;28;46411;-82
2023/01/12 05:35:04;;;;;;;;;4.75;2.00;;;;;-146.37;100.00;59337.28;5050186;28;45328;-82
2023/01/12 05:37:29;;;;;;;;;3.00;2.75;;;;;-146.37;100.00;59337.28;5048899;28;45515;-82
2023/01/12 05:39:55;;;;;;;;;3.00;1.50;;;;;-146.37;100.00;59337.28;5066529;28;45361;-82
2023/01/12 05:45:06;;;;;;;;;5.00;2.75;;;;;-146.37;100.00;59337.28;5066056;28;45424;-82
2023/01/12 05:47:32;;;;;;;;;4.00;1.50;;;;;-146.37;100.00;59337.28;5048277;28;45439;-82
2023/01/12 05:49:58;;;;;;;;;3.00;2.00;;;;;-146.37;100.00;59337.28;5066654;28;45557;-82
2023/01/12 05:52:23;;;;;;;;;4.25;3.00;;;;;-146.37;100.00;59337.28;5048502;28;47006;-82
2023/01/12 05:54:49;;;;;;;;;3.50;1.75;;;;;-146.37;100.00;59337.28;5064096;28;45710;-81
2023/01/12 05:57:14;;;;;;;;;1.25;1.00;;;;;-146.37;100.00;59337.28;5048269;28;45244;-81
2023/01/12 05:59:40;;;;;;;;;3.00;2.25;;;;;-146.37;100.00;59337.28;5050295;28;45523;-81
2023/01/12 06:02:05;;;;;;;;;2.75;1.75;;;;;-146.37;100.00;59337.28;5048711;28;46739;-82
2023/01/12 06:04:31;;;;;;;;;3.25;3.25;;;;;-146.37;100.00;59337.28;5048090;28;45422;-81
2023/01/12 06:06:56;;;;;;;;;3.50;2.00;;;;;-146.37;100.00;59337.28;5065945;28;45416;-82
2023/01/12 06:09:21;;;;;;;;;0.00;0.00;;;;;-146.37;100.00;59337.28;5049388;28;45429;-81
2023/01/12 06:14:31;;;;;;;;;0.25;0.25;;;;;-146.37;100.00;59337.28;5066782;28;45494;-81
2023/01/12 06:16:56;;;;;;;;;2.00;1.00;;;;;-146.37;100.00;59337.28;5050857;28;45518;-82
2023/01/12 06:19:22;;;;;;;;;2.25;1.25;;;;;-146.37;100.00;59337.28;5051342;28;45373;-80
2023/01/12 06:21:47;;;;;;;;;1.00;1.00;;;;;-146.37;100.00;59337.28;5050950;28;47656;-81
2023/01/12 06:27:37;;;;;;;;;3.75;2.00;;;;;-146.37;100.00;59337.28;5067542;28;45414;-80
2023/01/12 06:30:06;;;;;;;;;2.00;0.00;;;;;-146.37;100.00;59337.28;5066858;28;45682;-81
2023/01/12 06:32:32;;;;;;;;;1.00;1.00;;;;;-146.37;100.00;59337.28;5067567;28;45271;-82
2023/01/12 06:34:57;;;;;;;;;1.00;1.00;;;;;-146.37;100.00;59337.28;5049120;28;45395;-81
2023/01/12 06:37:26;;;;;;;;;1.00;1.00;;;;;-146.37;100.00;59337.28;5050567;28;45409;-81
2023/01/12 06:39:51;;;;;;;;;1.75;1.75;;;;;-146.37;100.00;59337.28;5048548;28;45374;-81
2023/01/12 06:42:29;;;;;;;;;1.25;1.25;;;;;-146.37;100.00;59337.28;5068109;28;46706;-83
2023/01/12 06:44:59;;;;;;;;;2.25;1.50;;;;;-146.37;100.00;59337.28;5067872;28;45366;-78
2023/01/12 06:47:26;;;;;;;;;2.00;0.25;;;;;-146.37;100.00;59337.28;5066353;28;45397;-83
2023/01/12 06:49:52;;;;;;;;;3.75;2.25;;;;;-146.37;100.00;59337.28;5049200;28;45786;-81
2023/01/12 06:52:23;;;;;;;;;2.75;1.25;;;;;-146.37;100.00;59337.28;5068247;28;45374;-81
2023/01/12 06:54:49;;;;;;;;;0.75;0.75;;;;;-146.37;100.00;59337.28;5050565;28;45490;-82
2023/01/12 06:57:15;;;;;;;;;3.25;1.25;;;;;-146.37;100.00;59337.28;5063518;28;45541;-81
2023/01/12 06:59:41;;;;;;;;;2.50;2.00;;;;;-146.37;100.00;59337.28;5032569;28;45637;-82
2023/01/12 07:02:15;;;;;;;;;0.00;0.00;;;;;-146.37;100.00;59337.28;5048157;28;47129;-82
2023/01/12 07:04:41;;;;;;;;;3.00;1.50;;;;;-146.37;100.00;59337.28;5046397;28;45286;-82
2023/01/12 07:07:08;;;;;;;;;1.50;1.00;;;;;-146.37;100.00;59337.28;5048610;28;45434;-83
2023/01/12 07:09:34;;;;;;;;;3.00;1.50;;;;;-146.37;100.00;59337.28;5047509;28;44936;-82
2023/01/12 07:12:01;;;;;;;;;2.00;2.00;;;;;-146.37;100.00;59337.28;5031464;28;47277;-83
2023/01/12 07:14:27;;;;;;;;;1.00;1.00;;;;;-146.37;100.00;59337.28;5047131;28;44784;-81
2023/01/12 07:16:53;;;;;;;;;1.00;0.00;;;;;-146.37;100.00;59337.28;5028942;28;45976;-81
2023/01/12 07:19:18;;;;;;;;;1.00;0.75;;;;;-146.37;100.00;59337.28;5046787;28;45466;-81
2023/01/12 07:21:44;;;;;;;;;2.00;0.75;;;;;-146.37;100.00;59337.28;5047448;28;46136;-81
2023/01/12 07:24:10;;;;;;;;;1.25;1.25;;;;;-146.37;100.00;59337.28;5044308;28;45379;-81
2023/01/12 07:26:35;;;;;;;;;1.00;1.00;;;;;-146.37;100.00;59337.28;5044470;28;45482;-81
2023/01/12 07:29:01;;;;;;;;;0.00;0.00;;;;;-146.37;100.00;59337.28;5066732;28;45433;-81
2023/01/12 07:34:50;;;;;;;;;0.50;0.50;;;;;-146.37;100.00;59337.28;5066911;28;45671;-82
2023/01/12 07:37:15;;;;;;;;;2.75;0.00;;;;;-146.37;100.00;59337.28;5066883;28;45319;-83
2023/01/12 07:39:41;;;;;;;;;2.75;2.00;;;;;-146.37;100.00;59337.28;5073853;28;45271;-83
2023/01/12 07:42:22;;;;;;;;;1.25;1.25;;;;;-146.37;100.00;59337.28;5051307;28;47054;-81
2023/01/12 07:44:49;;;;;;;;;4.00;1.75;;;;;-146.37;100.00;59337.28;5067109;28;45435;-82
2023/01/12 07:47:50;;;;;;;;;;;;;;;;;;;;;
2023/01/12 07:50:16;;;;;;;;;1.75;1.75;;;;;-146.37;100.00;59337.28;5044685;28;66319;-83
2023/01/12 07:52:42;;;;;;;;;1.67;1.33;;;;;-146.37;100.00;59337.28;5031547;28;45487;-82
2023/01/12 07:55:08;;;;;;;;;2.00;2.00;;;;;-146.37;100.00;59337.28;5048318;28;45769;-82
2023/01/12 07:57:42;;;;;;;;;49.00;41.00;;;;;-146.37;100.00;59337.28;5030507;28;44811;-85
2023/01/12 08:00:09;;;;;;;;;0.00;0.00;;;;;-146.37;100.00;59337.28;5048661;28;45390;-83
2023/01/12 08:02:35;;;;;;;;;3.00;1.00;;;;;-146.37;100.00;59337.28;5046677;28;45477;-82
2023/01/12 08:05:00;;;;;;;;;2.50;1.00;;;;;-146.37;100.00;59337.28;5026840;28;45461;-81
2023/01/12 08:07:26;;;;;;;;;2.00;2.00;;;;;-146.37;100.00;59337.28;5045940;28;45444;-82
2023/01/12 08:09:53;;;;;;;;;3.25;2.75;;;;;-146.37;100.00;59337.28;5047940;28;45418;-83
2023/01/12 08:12:18;;;;;;;;;3.00;3.00;;;;;-146.37;100.00;59337.28;5046273;28;45425;-82
2023/01/12 08:14:44;;;;;;;;;2.00;1.25;;;;;-146.37;100.00;59337.28;5049027;28;45741;-81
2023/01/12 08:17:16;;;;;;;;;0.00;0.00;;;;;-146.37;100.00;59337.28;5050508;28;44867;-81
2023/01/12 08:19:53;;;;;;;;;1.00;1.00;;;;;-146.37;100.00;59337.28;5048360;28;45545;-81
2023/01/12 08:22:26;;;;;;;;;0.00;0.00;;;;;-146.37;100.00;59337.28;5031399;28;45426;-82
2023/01/12 08:24:59;;;;;;;;;3.00;3.00;;;;;-146.37;100.00;59337.28;5050547;28;44841;-83
2023/01/12 08:27:32;;;;;;;;;2.00;2.00;;;;;-146.37;100.00;59337.28;5034772;28;45443;-84
2023/01/12 08:29:58;;;;;;;;;1.50;0.00;;;;;-146.37;100.00;59337.28;5036302;28;45043;-85
2023/01/12 08:32:33;;;;;;;;;0.00;0.00;;;;;-146.37;100.00;59337.28;5033521;28;46696;-84
2023/01/12 08:35:00;;;;;;;;;2.75;1.00;;;;;-146.37;100.00;59337.28;5032313;28;44780;-83
2023/01/12 08:46:25;;;;;;;;;1.00;1.00;;;;;-146.37;100.00;59337.28;5042879;28;45445;-82
2023/01/12 08:49:02;;;;;;;;;0.00;0.00;;;;;-146.37;100.00;59337.28;5049823;28;45383;-85
2023/01/12 08:51:35;;;;;;;;;1.00;1.00;;;;;-146.37;100.00;59337.28;5050841;28;45459;-83
2023/01/12 08:54:01;;;;;;;;;0.50;0.50;;;;;-146.37;100.00;59337.28;5050297;28;45656;-82
2023/01/12 08:56:30;;;;;;;;;2.25;0.75;;;;;-146.37;100.00;59337.28;5061626;28;45378;-82
2023/01/12 08:58:56;;;;;;;;;1.50;1.50;;;;;-146.37;100.00;59337.28;5050523;28;45415;-85
2023/01/12 09:01:22;;;;;;;;;0.50;0.50;;;;;-146.37;100.00;59337.28;5061237;28;45161;-83
2023/01/12 09:03:48;;;;;;;;;0.25;0.25;;;;;-146.37;100.00;59337.28;5051542;28;45492;-83
2023/01/12 09:06:22;;;;;;;;;2.00;2.00;;;;;-146.37;100.00;59337.28;5052247;28;45407;-81
2023/01/12 09:08:55;;;;;;;;;0.50;0.50;;;;;-146.37;100.00;59337.28;5048742;28;45387;-82
2023/01/12 09:11:22;;;;;;;;;1.25;1.00;;;;;-146.37;100.00;59337.28;5072032;28;45436;-82
2023/01/12 09:13:48;;;;;;;;;1.00;1.00;;;;;-146.37;100.00;59337.28;5067464;28;46839;-82
2023/01/12 09:16:15;;;;;;;;;0.00;0.00;;;;;-146.37;100.00;59337.28;5073135;28;45389;-83
2023/01/12 09:18:43;;;;;;;;;1.00;1.00;;;;;-146.37;100.00;59337.28;5073831;28;44806;-86
2023/01/12 09:21:12;;;;;;;;;2.00;0.50;;;;;-146.37;100.00;59337.28;5055152;28;45438;-83
2023/01/12 09:23:39;;;;;;;;;1.00;1.00;;;;;-146.37;100.00;59337.28;5059645;28;46724;-83
2023/01/12 09:27:20;;;;;;;;;1.00;1.00;;;;;-146.37;100.00;59337.28;5055045;28;45521;-83
2023/01/12 09:32:47;;;;;;;;;0.25;0.00;;;;;-146.37;100.00;59337.28;5062418;28;45639;-84
2023/01/12 09:35:13;;;;;;;;;2.25;1.00;;;;;-146.37;100.00;59337.28;5024041;28;46828;-81
2023/01/12 09:37:46;;;;;;;;;2.00;2.00;;;;;-146.37;100.00;59337.28;5072515;28;45289;-84
2023/01/12 09:40:30;;;;;;;;;2.25;1.75;;;;;-146.37;100.00;59337.28;5079362;28;45371;-80
2023/01/12 09:48:30;;;;;;;;;1.00;1.00;;;;;-146.37;100.00;59337.28;5070144;28;45522;-84
2023/01/12 09:51:27;;;;;;;;;2.25;2.00;;;;;-146.37;100.00;59337.28;5071236;28;45433;-82
2023/01/12 09:53:53;;;;;;;;;2.00;0.00;;;;;-146.37;100.00;59337.28;5069908;28;45524;-81
2023/01/12 09:56:39;;;;;;;;;2.00;2.00;;;;;-146.37;100.00;59337.28;5071364;28;45807;-82
2023/01/12 09:59:29;;;;;;;;;2.50;2.00;;;;;-146.37;100.00;59337.28;5050701;28;45541;-81
2023/01/12 10:01:56;;;;;;;;;1.25;1.25;;;;;-146.37;100.00;59337.28;5049350;28;45572;-83
2023/01/12 10:04:21;;;;;;;;;1.00;1.00;;;;;-146.37;100.00;59337.28;5054163;28;45198;-83
2023/01/12 10:06:47;;;;;;;;;1.25;1.25;;;;;-146.37;100.00;59337.28;5052060;28;46698;-82
2023/01/12 10:09:22;;;;;;;;;1.75;1.75;;;;;-146.37;100.00;59337.28;5054459;28;44939;-82
2023/01/12 10:12:05;;;;;;;;;3.00;1.00;;;;;-146.37;100.00;59337.28;5055973;28;45284;-82
2023/01/12 10:15:06;;;;;;;;;2.00;1.25;;;;;-146.37;100.00;59337.28;5053975;28;44913;-81
2023/01/12 10:17:41;;;;;;;;;3.00;2.00;;;;;-146.37;100.00;59337.28;5064780;28;47430;-82
2023/01/12 10:20:07;;;;;;;;;5.33;3.00;;;;;-146.37;100.00;59337.28;5073473;28;44851;-83
2023/01/12 10:22:54;;;;;;;;;0.00;0.00;;;;;-146.37;100.00;59337.28;5055435;28;45402;-84
2023/01/12 10:25:37;;;;;;;;;3.00;1.50;;;;;-146.37;100.00;59337.28;5072603;28;45422;-81
2023/01/12 10:28:26;;;;;;;;;0.75;0.75;;;;;-146.37;100.00;59337.28;5050881;28;47792;-83
2023/01/12 10:30:57;;;;;;;;;4.33;2.67;;;;;-146.37;100.00;59337.28;5055074;28;45377;-82
2023/01/12 10:33:30;;;;;;;;;3.00;2.00;;;;;-146.37;100.00;59337.28;5052974;28;45354;-82
2023/01/12 10:36:25;;;;;;;;;3.25;2.00;;;;;-146.37;100.00;59337.28;5055258;28;45461;-82
2023/01/12 10:38:56;;;;;;;;;2.75;1.00;;;;;-146.37;100.00;59337.28;5054103;28;47211;-82
2023/01/12 10:41:36;;;;;;;;;2.00;0.00;;;;;-146.37;100.00;59337.28;5050858;28;45489;-83
2023/01/12 10:44:11;;;;;;;;;1.00;1.00;;;;;-146.37;100.00;59337.28;5072299;28;45429;-83
2023/01/12 10:46:37;;;;;;;;;0.50;0.50;;;;;-146.37;100.00;59337.28;5068743;28;45572;-83
2023/01/12 10:49:20;;;;;;;;;1.25;1.25;;;;;-146.37;100.00;59337.28;5072388;28;45125;-84
2023/01/12 10:51:48;;;;;;;;;1.50;1.50;;;;;-146.37;100.00;59337.28;5071216;28;45302;-82
2023/01/12 10:54:18;;;;;;;;;1.00;1.00;;;;;-146.37;100.00;59337.28;5067951;28;45577;-83
2023/01/12 10:57:18;;;;;;;;;2.75;2.25;;;;;-146.37;100.00;59337.28;5052868;28;47085;-83
2023/01/12 10:59:56;;;;;;;;;1.50;1.50;;;;;-146.37;100.00;59337.28;5048230;28;46483;-82
2023/01/12 11:02:25;;;;;;;;;3.25;2.00;;;;;-146.37;100.00;59337.28;5037589;28;45398;-83
2023/01/12 11:04:52;;;;;;;;;1.00;1.00;;;;;-146.37;100.00;59337.28;5069307;28;44892;-82
2023/01/12 11:07:27;;;;;;;;;1.00;0.00;;;;;-146.37;100.00;59337.28;5052081;28;45414;-83
2023/01/12 11:09:58;;;;;;;;;1.00;1.00;;;;;-146.37;100.00;59337.28;5051598;28;47191;-82
2023/01/12 11:12:39;;;;;;;;;0.00;0.00;;;;;-146.37;100.00;59337.28;5053957;28;45479;-84
2023/01/12 11:15:11;;;;;;;;;1.25;1.25;;;;;-146.37;100.00;59337.28;5039961;28;45417;-82
2023/01/12 11:18:36;;;;;;;;;2.50;2.50;;;;;-146.37;100.00;59337.28;5053423;28;45501;-82
2023/01/12 11:24:43;;;;;;;;;1.25;1.25;;;;;-146.37;100.00;59337.28;5071555;28;44766;-83
2023/01/12 11:27:29;;;;;;;;;1.00;0.25;;;;;-146.37;100.00;59337.28;5058341;28;45250;-82
2023/01/12 11:30:23;;;;;;;;;0.50;0.50;;;;;-146.37;100.00;59337.28;5078280;28;45365;-84
2023/01/12 11:33:09;;;;;;;;;1.25;1.00;;;;;-146.37;100.00;59337.28;5076524;28;46108;-83
2023/01/12 11:36:08;;;;;;;;;1.00;1.00;;;;;-146.37;100.00;59337.28;5044643;28;45378;-83
2023/01/12 11:38:44;;;;;;;;;6.00;4.00;;;;;-146.37;100.00;59337.28;5075373;28;45517;-82
2023/01/12 11:41:21;;;;;;;;;3.00;1.25;;;;;-146.37;100.00;59337.28;5052574;28;44906;-83
2023/01/12 11:44:10;;;;;;;;;2.00;2.00;;;;;-146.37;100.00;59337.28;5067597;28;46831;-82
2023/01/12 11:47:31;;;;;;;;;1.75;0.75;;;;;-146.37;100.00;59337.28;5070171;28;45393;-82
2023/01/12 11:50:12;;;;;;;;;1.25;1.00;;;;;-146.37;100.00;59337.28;5044445;28;45454;-84
2023/01/12 11:52:39;;;;;;;;;1.00;1.00;;;;;-146.37;100.00;59337.28;5049154;28;45719;-81
2023/01/12 11:55:21;;;;;;;;;3.00;1.00;;;;;-146.37;100.00;59337.28;5059719;28;45717;-84
2023/01/12 11:58:14;;;;;;;;;2.50;2.50;;;;;-146.37;100.00;59337.28;5053322;28;44955;-83
2023/01/12 12:01:21;;;;;;;;;2.00;2.00;;;;;-146.37;100.00;59337.28;5027406;28;44839;-83
2023/01/12 12:04:23;;;;;;;;;2.00;2.00;;;;;-146.37;100.00;59337.28;5032904;28;45495;-81
2023/01/12 12:10:22;;;;;;;;;2.25;1.75;;;;;-146.37;100.00;59337.28;5049311;28;45359;-84
2023/01/12 12:13:22;;;;;;;;;2.00;1.00;;;;;-146.37;100.00;59337.28;5034629;28;44902;-83
2023/01/12 12:16:24;;;;;;;;;1.00;1.00;;;;;-146.37;100.00;59337.28;5053884;28;45394;-84
2023/01/12 12:19:24;;;;;;;;;1.00;1.00;;;;;-146.37;100.00;59337.28;5036842;28;47271;-84
2023/01/12 12:22:28;;;;;;;;;0.75;0.75;;;;;-146.37;100.00;59337.28;5058669;28;44691;-84
2023/01/12 12:25:11;;;;;;;;;2.00;2.00;;;;;-146.37;100.00;59337.28;5049733;28;45785;-83
2023/01/12 12:28:07;;;;;;;;;3.00;1.00;;;;;-146.37;100.00;59337.28;5032804;28;45545;-84
2023/01/12 12:30:49;;;;;;;;;4.25;1.25;;;;;-146.37;100.00;59337.28;5030126;28;47388;-83
2023/01/12 12:33:38;;;;;;;;;1.00;0.75;;;;;-146.37;100.00;59337.28;5046540;28;45661;-81
2023/01/12 12:36:23;;;;;;;;;1.00;1.00;;;;;-146.37;100.00;59337.28;5061132;28;45800;-85